Latest Weather Observations for Mount Lofty

IDS60801

Issued at 4:21 pm CST Friday 19 April 2019 (issued every 10 minutes, with the page automatically refreshed every 10 minutes)

About weather observations | Map of weather stations | Latest weather observations for SA | Other Formats
Station Details ID: 023842 Name: MOUNT LOFTY Lat: -34.98 Lon: 138.71 Height: 685.0 m
Data from the previous 72 hours. | See also: Recent months at Mount Lofty
Date/Time
CST
Temp
°C
App
Temp
°C
Dew
Point
°C
Rel
Hum
%
Delta-T
°C
Wind Press
QNH
hPa
Press
MSL
hPa
Rain since
9am
mm
Dir  Spd
km/h
Gust
km/h
Spd
kts
Gust
kts
19/04:00pm 25.9 22.7 4.9 26 11.0 WNW 11 20 6 11 - - 0.0
19/03:30pm 26.4 23.1 4.8 25 11.3 WNW 11 24 6 13 - - 0.0
19/03:00pm 27.0 23.3 4.7 24 11.7 NW 13 22 7 12 - - 0.0
19/02:30pm 27.4 23.8 5.1 24 11.8 NW 13 22 7 12 - - 0.0
19/02:00pm 25.5 22.2 4.6 26 10.9 NW 11 24 6 13 - - 0.0
19/01:30pm 26.2 22.5 4.6 25 11.3 NW 13 26 7 14 - - 0.0
19/01:00pm 25.2 20.7 4.3 26 10.8 NW 17 28 9 15 - - 0.0
19/12:30pm 25.0 20.6 4.7 27 10.5 NNW 17 32 9 17 - - 0.0
19/12:00pm 24.0 20.3 4.4 28 10.1 NNW 13 24 7 13 - - 0.0
19/11:30am 24.1 19.3 4.5 28 10.1 NNW 19 39 10 21 - - 0.0
19/11:00am 23.5 19.1 4.5 29 9.7 NNW 17 39 9 21 - - 0.0
19/10:30am 22.8 18.8 4.8 31 9.2 NNW 15 30 8 16 - - 0.0
19/10:00am 21.8 18.2 4.8 33 8.7 NNW 13 22 7 12 - - 0.0
19/09:30am 21.9 17.9 4.9 33 8.7 N 15 26 8 14 - - 0.0
19/09:00am 20.4 16.5 5.2 37 7.7 N 15 30 8 16 - - 0.0
19/08:30am 20.2 16.2 5.1 37 7.7 N 15 28 8 15 - - 0.0
19/08:00am 19.7 15.6 4.6 37 7.6 N 15 26 8 14 - - 0.0
19/07:30am 19.3 15.6 4.6 38 7.3 N 13 24 7 13 - - 0.0
19/07:00am 19.1 15.4 4.5 38 7.3 N 13 32 7 17 - - 0.0
19/06:30am 18.8 14.7 4.2 38 7.2 N 15 32 8 17 - - 0.0
19/06:00am 18.0 14.2 3.9 39 6.9 N 13 22 7 12 - - 0.0
19/05:30am 16.8 13.9 2.8 39 6.6 NNE 7 17 4 9 - - 0.0
19/05:00am 15.5 12.1 1.6 39 6.3 NE 9 20 5 11 - - 0.0
19/04:30am 13.8 10.1 0.1 39 6.0 ENE 9 17 5 9 - - 0.0
19/04:00am 13.4 10.0 -0.6 38 6.0 ENE 7 17 4 9 - - 0.0
19/03:30am 12.7 9.4 -0.9 39 5.7 E 6 11 3 6 - - 0.0
19/03:00am 12.2 8.7 -1.0 40 5.5 E 7 15 4 8 - - 0.0
19/02:30am 12.0 8.5 -1.5 39 5.6 E 7 15 4 8 - - 0.0
19/02:00am 11.8 8.3 -1.3 40 5.4 E 7 15 4 8 - - 0.0
19/01:30am 11.8 8.3 -1.3 40 5.4 E 7 17 4 9 - - 0.0
19/01:00am 12.0 8.6 -0.8 41 5.4 ESE 7 19 4 10 - - 0.0
19/12:30am 11.6 7.8 -0.5 43 5.1 ESE 9 17 5 9 - - 0.0
19/12:00am 11.1 7.7 -0.4 45 4.8 ESE 7 15 4 8 - - 0.0
 
Date/Time
CST
Temp
°C
App
Temp
°C
Dew
Point
°C
Rel
Hum
%
Delta-T
°C
Wind Press
QNH
hPa
Press
MSL
hPa
Rain since
9am
mm
Dir  Spd
km/h
Gust
km/h
Spd
kts
Gust
kts
18/11:30pm 11.1 7.4 -0.1 46 4.7 ESE 9 17 5 9 - - 0.0
18/11:00pm 11.5 7.5 0.3 46 4.8 ESE 11 20 6 11 - - 0.0
18/10:30pm 11.6 7.6 0.4 46 4.8 ESE 11 20 6 11 - - 0.0
18/10:00pm 11.4 7.6 1.6 51 4.3 ESE 11 20 6 11 - - 0.0
18/09:30pm 11.2 7.5 2.2 54 4.0 ESE 11 20 6 11 - - 0.0
18/09:00pm 10.9 7.4 3.5 60 3.4 ESE 11 19 6 10 - - 0.0
18/08:30pm 10.7 7.2 3.7 62 3.2 ESE 11 17 6 9 - - 0.0
18/08:00pm 11.0 7.7 2.6 56 3.8 ESE 9 19 5 10 - - 0.0
18/07:30pm 12.1 8.0 -0.4 42 5.3 ESE 11 20 6 11 - - 0.0
18/07:00pm 12.5 8.4 -0.4 41 5.5 ESE 11 22 6 12 - - 0.0
18/06:30pm 12.8 8.7 -0.1 41 5.5 ESE 11 20 6 11 - - 0.0
18/06:00pm 13.1 9.1 0.2 41 5.6 ESE 11 20 6 11 - - 0.0
18/05:30pm 13.9 9.9 0.5 40 5.9 ESE 11 20 6 11 - - 0.0
18/05:00pm 14.7 10.8 0.9 39 6.2 ESE 11 20 6 11 - - 0.0
18/04:30pm 15.2 11.3 1.4 39 6.3 ESE 11 19 6 10 - - 0.0
18/04:00pm 15.9 12.5 1.6 38 6.6 ESE 9 20 5 11 - - 0.0
18/03:30pm 16.6 13.6 1.9 37 6.8 ESE 7 13 4 7 - - 0.0
18/03:00pm 17.3 14.5 3.2 39 6.7 ESE 7 17 4 9 - - 0.0
18/02:30pm 17.2 14.3 2.8 38 6.8 E 7 15 4 8 - - 0.0
18/02:00pm 16.8 13.3 3.5 41 6.4 ESE 11 24 6 13 - - 0.0
18/01:30pm 16.3 13.2 3.4 42 6.2 ESE 9 22 5 12 - - 0.0
18/01:00pm 15.7 12.6 3.5 44 5.8 ESE 9 20 5 11 - - 0.0
18/12:30pm 14.6 11.1 3.4 47 5.3 ESE 11 28 6 15 - - 0.0
18/12:00pm 14.7 11.1 5.0 52 4.7 ESE 13 28 7 15 - - 0.0
18/11:30am 14.8 12.0 5.3 53 4.7 ESE 9 19 5 10 - - 0.0
18/11:00am 13.5 10.1 5.7 59 3.8 ESE 13 24 7 13 - - 0.0
18/10:30am 12.6 9.1 5.5 62 3.4 ESE 13 32 7 17 - - 0.0
18/10:00am 11.8 7.6 5.9 67 2.9 ESE 17 37 9 20 - - 0.0
18/09:30am 11.6 7.9 6.5 71 2.5 ESE 15 26 8 14 - - 0.0
18/09:00am 10.4 7.0 6.0 74 2.1 ESE 13 32 7 17 - - 0.0
18/08:30am 9.8 6.5 6.2 78 1.7 ESE 13 20 7 11 - - 0.0
18/08:00am 8.8 5.4 5.9 82 1.4 ESE 13 22 7 12 - - 0.0
18/07:30am 8.3 4.9 5.9 85 1.1 ESE 13 26 7 14 - - 0.0
18/07:00am 7.8 4.0 5.8 87 0.9 ESE 15 24 8 13 - - 0.0
18/06:30am 7.7 4.3 5.8 88 0.9 ESE 13 22 7 12 - - 0.0
18/06:00am 7.7 4.2 5.5 86 1.0 ESE 13 20 7 11 - - 0.0
18/05:30am 7.7 4.3 5.8 88 0.9 ESE 13 22 7 12 - - 0.0
18/05:00am 7.7 4.3 5.8 88 0.9 ESE 13 20 7 11 - - 0.0
18/04:30am 7.7 4.3 5.7 87 0.9 ESE 13 22 7 12 - - 0.0
18/04:00am 7.9 4.5 5.7 86 1.0 ESE 13 22 7 12 - - 0.0
18/03:30am 8.2 4.8 5.8 85 1.1 ESE 13 24 7 13 - - 0.0
18/03:00am 8.4 5.0 6.0 85 1.1 ESE 13 22 7 12 - - 0.0
18/02:30am 8.5 5.1 6.1 85 1.1 ESE 13 26 7 14 - - 0.0
18/02:00am 8.7 5.8 6.3 85 1.1 ESE 11 20 6 11 - - 0.0
18/01:30am 8.8 6.3 6.4 85 1.2 ESE 9 17 5 9 - - 0.0
18/01:00am 8.8 6.3 6.4 85 1.2 ESE 9 17 5 9 - - 0.0
18/12:30am 9.0 6.9 6.6 85 1.2 SE 7 15 4 8 - - 0.0
18/12:00am 9.0 7.2 7.0 87 1.0 SE 6 13 3 7 - - 0.0
 
Date/Time
CST
Temp
°C
App
Temp
°C
Dew
Point
°C
Rel
Hum
%
Delta-T
°C
Wind Press
QNH
hPa
Press
MSL
hPa
Rain since
9am
mm
Dir  Spd
km/h
Gust
km/h
Spd
kts
Gust
kts
17/11:30pm 9.3 7.5 7.3 87 1.0 ESE 6 15 3 8 - - 0.0
17/11:00pm 9.6 7.9 7.4 86 1.1 SE 6 11 3 6 - - 0.0
17/10:30pm 9.8 8.2 7.9 88 1.0 SE 6 11 3 6 - - 0.0
17/10:00pm 10.3 8.9 8.7 90 0.8 SE 6 15 3 8 - - 0.0
17/09:30pm 10.8 9.5 9.2 90 0.8 SE 6 15 3 8 - - 0.0
17/09:00pm 11.3 10.0 9.9 91 0.7 SSE 7 15 4 8 - - 0.0
17/08:30pm 12.2 11.1 10.6 90 0.9 SSE 7 15 4 8 - - 0.0
17/08:00pm 12.8 12.1 11.4 91 0.8 S 6 9 3 5 - - 0.0
17/07:30pm 13.2 12.4 11.1 87 1.1 SW 6 13 3 7 - - 0.0
17/07:00pm 13.1 12.2 11.5 90 0.9 WSW 7 13 4 7 - - 0.0
17/06:30pm 13.4 12.6 11.1 86 1.3 WSW 6 17 3 9 - - 0.0
17/06:00pm 14.1 12.4 11.1 82 1.6 WSW 11 24 6 13 - - 0.0
17/05:30pm 15.2 14.5 13.2 88 1.1 WSW 9 17 5 9 - - 0.0
17/05:00pm 16.1 14.9 11.7 75 2.5 WSW 9 20 5 11 - - 0.0
17/04:30pm 16.4 14.7 11.3 72 2.8 WSW 11 30 6 16 - - 0.0
17/04:00pm 17.6 16.0 11.6 68 3.4 WSW 11 22 6 12 - - 0.0
17/03:30pm 18.1 17.3 11.7 66 3.6 WSW 7 15 4 8 - - 0.0
17/03:00pm 18.7 18.3 12.9 69 3.4 W 7 15 4 8 - - 0.0
17/02:30pm 18.5 17.6 12.7 69 3.4 W 9 20 5 11 - - 0.0
17/02:00pm 18.6 18.1 12.6 68 3.5 W 7 17 4 9 - - 0.0
17/01:30pm 18.7 18.2 12.5 67 3.6 W 7 15 4 8 - - 0.0
17/01:00pm 19.2 17.7 12.0 63 4.1 W 11 24 6 13 - - 0.0
17/12:30pm 21.1 18.1 10.6 51 5.9 WNW 17 33 9 18 - - 0.0
17/12:00pm 21.5 17.7 9.1 45 6.8 WNW 19 35 10 19 - - 0.0
17/11:30am 21.0 17.0 8.9 46 6.6 WNW 20 39 11 21 - - 0.0
17/11:00am 21.1 15.9 5.5 36 8.0 NW 22 48 12 26 - - 0.0
17/10:30am 20.9 16.3 5.7 37 7.8 NW 19 33 10 18 - - 0.0
17/10:00am 20.9 16.2 6.1 38 7.7 NW 20 37 11 20 - - 0.0
17/09:30am 20.6 15.6 6.5 40 7.4 NW 22 43 12 23 - - 0.0
17/09:00am 20.8 16.4 6.4 39 7.5 NW 19 39 10 21 - - 0.0
17/08:30am 20.7 15.8 7.0 41 7.2 NW 22 41 12 22 - - 0.0
17/08:00am 20.3 16.0 7.0 42 7.0 NW 19 32 10 17 - - 0.0
17/07:30am 20.4 16.3 6.0 39 7.4 NW 17 32 9 17 - - 0.0
17/07:00am 20.3 16.3 4.8 36 7.8 WNW 15 24 8 13 - - 0.0
17/06:30am 21.1 16.5 3.8 32 8.6 WNW 17 30 9 16 - - 0.0
17/06:00am 22.0 17.0 3.6 30 9.2 NW 19 35 10 19 - - 0.0
17/05:30am 21.9 17.0 4.0 31 9.0 NW 19 35 10 19 - - 0.0
17/05:00am 21.6 17.1 4.2 32 8.8 NW 17 32 9 17 - - 0.0
17/04:30am 22.9 17.8 2.9 27 9.9 NW 19 33 10 18 - - 0.0
17/04:00am 23.1 17.4 3.1 27 10.0 NNW 22 41 12 22 - - 0.0
17/03:30am 23.6 17.5 3.0 26 10.3 NNW 24 44 13 24 - - 0.0
17/03:00am 24.0 17.5 2.8 25 10.6 NNW 26 44 14 24 - - 0.0
17/02:30am 24.0 18.3 2.8 25 10.6 NNW 22 37 12 20 - - 0.0
17/02:00am 23.8 19.4 2.6 25 10.5 NNW 15 32 8 17 - - 0.0
17/01:30am 24.2 18.4 2.4 24 10.8 NNW 22 41 12 22 - - 0.0
17/01:00am 24.6 18.9 2.7 24 10.9 NNW 22 39 12 21 - - 0.0
17/12:30am 24.6 18.8 2.1 23 11.1 NNW 22 43 12 23 - - 0.0
17/12:00am 24.7 19.5 2.2 23 11.1 NNW 19 35 10 19 - - 0.0
 
Date/Time
CST
Temp
°C
App
Temp
°C
Dew
Point
°C
Rel
Hum
%
Delta-T
°C
Wind Press
QNH
hPa
Press
MSL
hPa
Rain since
9am
mm
Dir  Spd
km/h
Gust
km/h
Spd
kts
Gust
kts
16/11:30pm 24.8 19.9 2.3 23 11.2 N 17 32 9 17 - - 0.0
16/11:00pm 24.7 19.9 2.8 24 11.0 N 17 28 9 15 - - 0.0
16/10:30pm 24.9 19.8 3.0 24 11.0 NNW 19 30 10 16 - - 0.0
16/10:00pm 25.0 19.9 3.0 24 11.1 NNW 19 33 10 18 - - 0.0
16/09:30pm 25.5 20.5 3.5 24 11.2 NNW 19 35 10 19 - - 0.0
16/09:00pm 25.8 20.2 3.7 24 11.3 NNW 22 39 12 21 - - 0.0
16/08:30pm 25.6 20.7 4.1 25 11.1 NNW 19 28 10 15 - - 0.0
16/08:00pm 25.6 21.1 4.1 25 11.1 NNW 17 26 9 14 - - 0.0
16/07:30pm 25.6 21.5 4.1 25 11.1 NNW 15 28 8 15 - - 0.0
16/07:00pm 25.6 21.8 4.1 25 11.1 NNW 13 30 7 16 - - 0.0
16/06:30pm 25.6 21.9 4.7 26 10.9 NNW 13 24 7 13 - - 0.0
16/06:00pm 25.5 21.5 5.1 27 10.7 NW 15 30 8 16 - - 0.0
16/05:30pm 26.0 21.6 5.0 26 11.0 NW 17 32 9 17 - - 0.0
16/05:00pm 26.7 22.4 5.1 25 11.4 NW 17 30 9 16 - - 0.0
16/04:30pm 26.8 22.0 4.6 24 11.6 NW 19 32 10 17 - - 0.0

Other formats

Comma delimited format used in spreadsheet applications
http://www.bom.gov.au/fwo/IDS60801/IDS60801.95678.axf

JavaScript Object Notation format (JSON) in row-major order
http://www.bom.gov.au/fwo/IDS60801/IDS60801.95678.json

Data quality

Most of these data are generated automatically and are frequently updated. Quality checks on data are not normally performed. It is possible for incorrect values to appear. Refer to information at About Latest Weather Observations and please check the disclaimer before using these data.